Time;durP1;ratioP1;P1;durP2;ratioP2;P2;SDS_P1;SDS_P2;PMS_P1;PMS_P2;Temp;Humidity;BMP_temperature;BMP_pressure;BME280_temperature;BME280_humidity;BME280_pressure;Samples;Min_cycle;Max_cycle;Signal;HPM_P1;HPM_P2
2023/06/08 00:01:43;;;;;;;15.97;9.10;;;;;;;;;;5074538;28;20455;-62
2023/06/08 00:04:12;;;;;;;17.40;10.60;;;;;;;;;;5074709;28;20452;-62
2023/06/08 00:06:40;;;;;;;16.87;8.90;;;;;;;;;;5074544;28;20530;-62
2023/06/08 00:09:08;;;;;;;17.00;8.97;;;;;;;;;;5074955;28;20568;-62
2023/06/08 00:11:37;;;;;;;16.23;8.60;;;;;;;;;;5074548;28;20494;-62
2023/06/08 00:14:04;;;;;;;14.00;8.47;;;;;;;;;;5075542;28;20462;-62
2023/06/08 00:16:32;;;;;;;13.20;8.60;;;;;;;;;;5074485;28;20444;-61
2023/06/08 00:19:00;;;;;;;15.43;9.73;;;;;;;;;;5074005;28;20813;-62
2023/06/08 00:21:29;;;;;;;16.80;9.40;;;;;;;;;;5074755;28;20445;-62
2023/06/08 00:23:56;;;;;;;14.67;9.57;;;;;;;;;;5074232;28;20948;-62
2023/06/08 00:26:24;;;;;;;14.23;8.83;;;;;;;;;;5074194;28;20792;-62
2023/06/08 00:28:52;;;;;;;14.67;9.13;;;;;;;;;;5074057;28;20443;-62
2023/06/08 00:31:19;;;;;;;15.63;9.37;;;;;;;;;;5074241;28;20458;-62
2023/06/08 00:33:47;;;;;;;18.53;9.83;;;;;;;;;;5074374;28;20445;-62
2023/06/08 00:36:15;;;;;;;15.03;8.03;;;;;;;;;;5074189;28;20498;-62
2023/06/08 00:38:42;;;;;;;14.63;8.83;;;;;;;;;;5073954;28;20436;-62
2023/06/08 00:41:09;;;;;;;17.00;9.50;;;;;;;;;;5074062;28;20467;-62
2023/06/08 00:43:36;;;;;;;13.50;8.90;;;;;;;;;;5074208;28;20440;-62
2023/06/08 00:46:07;;;;;;;12.87;9.03;;;;;;;;;;5074017;28;20801;-63
2023/06/08 00:48:34;;;;;;;15.03;9.10;;;;;;;;;;5073824;28;20921;-62
2023/06/08 00:51:03;;;;;;;18.67;9.50;;;;;;;;;;5074435;28;20483;-63
2023/06/08 00:53:30;;;;;;;16.07;8.87;;;;;;;;;;5073828;28;20447;-63
2023/06/08 00:55:57;;;;;;;15.57;9.63;;;;;;;;;;5073541;28;20484;-63
2023/06/08 00:58:25;;;;;;;9.47;8.57;;;;;;;;;;5073932;28;20459;-62
2023/06/08 01:00:59;;;;;;;17.33;10.00;;;;;;;;;;5074060;28;20843;-63
2023/06/08 01:03:33;;;;;;;11.20;8.40;;;;;;;;;;5074100;28;20433;-62
2023/06/08 01:06:00;;;;;;;13.73;8.77;;;;;;;;;;5073413;28;20424;-63
2023/06/08 01:08:32;;;;;;;19.03;10.50;;;;;;;;;;5073700;28;20485;-62
2023/06/08 01:11:05;;;;;;;18.00;9.00;;;;;;;;;;5073965;28;20465;-63
2023/06/08 01:13:38;;;;;;;18.63;8.97;;;;;;;;;;5073438;28;20424;-62
2023/06/08 01:16:06;;;;;;;19.17;9.73;;;;;;;;;;5073711;28;20760;-62
2023/06/08 01:18:38;;;;;;;17.63;8.87;;;;;;;;;;5073302;28;20442;-63
2023/06/08 01:21:11;;;;;;;14.17;9.33;;;;;;;;;;5073211;28;20944;-63
2023/06/08 01:23:45;;;;;;;11.30;10.07;;;;;;;;;;5074126;28;20801;-62
2023/06/08 01:26:15;;;;;;;16.53;9.30;;;;;;;;;;5073182;28;20427;-63
2023/06/08 01:28:43;;;;;;;16.50;8.93;;;;;;;;;;5073861;28;20772;-62
2023/06/08 01:31:10;;;;;;;16.43;10.50;;;;;;;;;;5072482;28;20489;-63
2023/06/08 01:33:38;;;;;;;14.67;8.90;;;;;;;;;;5073513;28;20533;-63
2023/06/08 01:36:07;;;;;;;17.10;9.40;;;;;;;;;;5073326;28;20472;-63
2023/06/08 01:38:40;;;;;;;21.00;9.40;;;;;;;;;;5073365;28;20935;-62
2023/06/08 01:41:09;;;;;;;15.70;9.33;;;;;;;;;;5072965;28;20479;-63
2023/06/08 01:43:39;;;;;;;18.63;9.83;;;;;;;;;;5073391;28;20444;-62
2023/06/08 01:46:07;;;;;;;18.43;9.80;;;;;;;;;;5073296;28;20797;-63
2023/06/08 01:48:35;;;;;;;13.70;10.07;;;;;;;;;;5073302;28;20465;-62
2023/06/08 01:51:02;;;;;;;17.80;9.40;;;;;;;;;;5073281;28;20479;-63
2023/06/08 01:53:30;;;;;;;18.60;11.43;;;;;;;;;;5073115;28;20433;-62
2023/06/08 01:55:57;;;;;;;18.67;9.80;;;;;;;;;;5073238;28;20436;-62
2023/06/08 01:58:24;;;;;;;17.07;10.30;;;;;;;;;;5073093;28;20458;-62
2023/06/08 02:00:52;;;;;;;14.53;10.23;;;;;;;;;;5073222;28;20438;-62
2023/06/08 02:03:20;;;;;;;16.53;9.27;;;;;;;;;;5072820;28;20451;-62
2023/06/08 02:05:47;;;;;;;17.93;10.23;;;;;;;;;;5073171;28;20438;-62
2023/06/08 02:08:14;;;;;;;15.53;10.30;;;;;;;;;;5072712;28;20452;-62
2023/06/08 02:10:41;;;;;;;12.83;9.30;;;;;;;;;;5072955;28;20483;-62
2023/06/08 02:13:08;;;;;;;12.47;9.67;;;;;;;;;;5073157;28;20452;-62
2023/06/08 02:15:35;;;;;;;19.33;11.10;;;;;;;;;;5072688;28;20447;-63
2023/06/08 02:18:05;;;;;;;14.37;10.27;;;;;;;;;;5072900;28;20447;-62
2023/06/08 02:20:33;;;;;;;16.00;10.80;;;;;;;;;;5072727;28;20455;-62
2023/06/08 02:23:00;;;;;;;15.37;10.17;;;;;;;;;;5072843;28;20451;-62
2023/06/08 02:25:27;;;;;;;16.47;10.60;;;;;;;;;;5072602;28;20458;-63
2023/06/08 02:27:56;;;;;;;22.33;11.07;;;;;;;;;;5072963;28;20472;-61
2023/06/08 02:30:23;;;;;;;14.77;10.53;;;;;;;;;;5072477;28;20479;-61
2023/06/08 02:32:53;;;;;;;18.73;9.60;;;;;;;;;;5072499;28;20972;-61
2023/06/08 02:35:21;;;;;;;12.33;10.20;;;;;;;;;;5073255;28;20447;-61
2023/06/08 02:37:48;;;;;;;13.27;9.63;;;;;;;;;;5072412;28;20450;-61
2023/06/08 02:40:16;;;;;;;13.60;9.70;;;;;;;;;;5072508;28;20467;-62
2023/06/08 02:42:43;;;;;;;17.00;10.00;;;;;;;;;;5075567;28;20481;-62
2023/06/08 02:45:10;;;;;;;15.60;11.03;;;;;;;;;;5076753;28;20437;-62
2023/06/08 02:47:37;;;;;;;21.53;11.83;;;;;;;;;;5076335;28;20451;-62
2023/06/08 02:50:05;;;;;;;16.00;9.90;;;;;;;;;;5076289;28;20494;-61
2023/06/08 02:52:34;;;;;;;19.00;10.43;;;;;;;;;;5075938;28;20443;-61
2023/06/08 02:55:01;;;;;;;16.10;10.20;;;;;;;;;;5075974;28;20945;-61
2023/06/08 02:57:28;;;;;;;12.97;9.73;;;;;;;;;;5076288;28;20450;-61
2023/06/08 02:59:55;;;;;;;17.70;10.23;;;;;;;;;;5076286;28;20456;-61
2023/06/08 03:02:23;;;;;;;20.77;11.20;;;;;;;;;;5076034;28;20462;-61
2023/06/08 03:04:52;;;;;;;16.93;11.10;;;;;;;;;;5076095;28;20535;-61
2023/06/08 03:07:19;;;;;;;17.60;10.50;;;;;;;;;;5076208;28;20447;-61
2023/06/08 03:09:48;;;;;;;21.17;10.23;;;;;;;;;;5075600;28;20442;-61
2023/06/08 03:12:15;;;;;;;18.77;11.83;;;;;;;;;;5075557;28;20443;-62
2023/06/08 03:14:42;;;;;;;17.27;9.97;;;;;;;;;;5075615;28;20453;-61
2023/06/08 03:17:10;;;;;;;28.10;10.53;;;;;;;;;;5075630;28;20445;-61
2023/06/08 03:19:37;;;;;;;18.73;11.27;;;;;;;;;;5075721;28;20500;-61
2023/06/08 03:22:06;;;;;;;16.53;10.40;;;;;;;;;;5075890;28;20966;-62
2023/06/08 03:24:33;;;;;;;21.80;10.83;;;;;;;;;;5075702;28;20805;-62
2023/06/08 03:27:02;;;;;;;12.87;10.50;;;;;;;;;;5075432;28;20954;-62
2023/06/08 03:29:30;;;;;;;18.70;11.20;;;;;;;;;;5075684;28;20923;-62
2023/06/08 03:31:57;;;;;;;16.70;11.03;;;;;;;;;;5075519;28;20489;-62
2023/06/08 03:34:26;;;;;;;22.83;10.83;;;;;;;;;;5075510;28;20559;-62
2023/06/08 03:36:53;;;;;;;18.60;10.97;;;;;;;;;;5075956;28;20433;-62
2023/06/08 03:39:20;;;;;;;22.10;10.80;;;;;;;;;;5075269;28;20448;-61
2023/06/08 03:41:47;;;;;;;19.33;10.60;;;;;;;;;;5075105;28;20525;-61
2023/06/08 03:44:16;;;;;;;16.30;11.50;;;;;;;;;;5075731;28;20450;-62
2023/06/08 03:46:43;;;;;;;19.80;13.67;;;;;;;;;;5075375;28;20442;-61
2023/06/08 03:49:10;;;;;;;22.03;11.93;;;;;;;;;;5075360;28;20435;-62
2023/06/08 03:51:37;;;;;;;17.13;11.20;;;;;;;;;;5072810;28;20487;-62
2023/06/08 03:54:05;;;;;;;20.63;12.17;;;;;;;;;;5073443;28;20444;-61
2023/06/08 03:56:32;;;;;;;18.43;11.73;;;;;;;;;;5074756;28;20569;-62
2023/06/08 03:58:59;;;;;;;19.77;10.67;;;;;;;;;;5075105;28;20447;-62
2023/06/08 04:01:30;;;;;;;18.00;10.83;;;;;;;;;;5074576;28;20443;-63
2023/06/08 04:03:57;;;;;;;15.70;11.83;;;;;;;;;;5074762;28;20439;-63
2023/06/08 04:06:31;;;;;;;22.93;11.70;;;;;;;;;;5074700;28;20450;-62
2023/06/08 04:08:58;;;;;;;25.67;11.80;;;;;;;;;;5074696;28;20428;-62
2023/06/08 04:11:26;;;;;;;18.10;11.17;;;;;;;;;;5073820;28;20497;-62
2023/06/08 04:13:53;;;;;;;20.77;11.83;;;;;;;;;;5073843;28;20455;-62
2023/06/08 04:16:20;;;;;;;20.50;12.07;;;;;;;;;;5074268;28;20442;-62
2023/06/08 04:18:49;;;;;;;20.53;14.23;;;;;;;;;;5073924;28;20452;-62
2023/06/08 04:21:16;;;;;;;20.40;12.03;;;;;;;;;;5074325;28;20447;-62
2023/06/08 04:23:44;;;;;;;19.10;11.60;;;;;;;;;;5074423;28;20452;-62
2023/06/08 04:26:12;;;;;;;24.70;12.47;;;;;;;;;;5074614;28;20459;-61
2023/06/08 04:28:39;;;;;;;16.87;12.47;;;;;;;;;;5074167;28;20811;-62
2023/06/08 04:31:07;;;;;;;23.97;12.67;;;;;;;;;;5073811;28;21004;-62
2023/06/08 04:33:34;;;;;;;16.90;11.47;;;;;;;;;;5074206;28;20454;-62
2023/06/08 04:36:03;;;;;;;22.03;13.03;;;;;;;;;;5073829;28;20451;-61
2023/06/08 04:38:30;;;;;;;21.00;13.03;;;;;;;;;;5074052;28;20454;-63
2023/06/08 04:41:01;;;;;;;18.47;11.67;;;;;;;;;;5073722;28;20578;-61
2023/06/08 04:43:29;;;;;;;20.70;12.83;;;;;;;;;;5074072;28;20444;-63
2023/06/08 04:45:59;;;;;;;19.27;12.43;;;;;;;;;;5074167;28;20474;-60
2023/06/08 04:48:27;;;;;;;24.20;12.70;;;;;;;;;;5073981;28;20444;-57
2023/06/08 04:50:54;;;;;;;21.87;12.90;;;;;;;;;;5073570;28;20518;-58
2023/06/08 04:53:23;;;;;;;23.07;13.50;;;;;;;;;;5074469;28;20445;-60
2023/06/08 04:55:57;;;;;;;21.13;11.77;;;;;;;;;;5073776;28;20441;-59
2023/06/08 04:58:24;;;;;;;27.43;13.43;;;;;;;;;;5073552;28;20434;-59
2023/06/08 05:00:52;;;;;;;19.80;13.10;;;;;;;;;;5073525;28;20889;-57
2023/06/08 05:03:19;;;;;;;24.93;13.30;;;;;;;;;;5073923;28;20888;-60
2023/06/08 05:05:46;;;;;;;17.37;12.00;;;;;;;;;;5073786;28;20453;-60
2023/06/08 05:08:14;;;;;;;20.53;12.57;;;;;;;;;;5073891;28;20444;-61
2023/06/08 05:10:42;;;;;;;17.50;12.10;;;;;;;;;;5073239;28;20447;-60
2023/06/08 05:13:09;;;;;;;26.87;12.70;;;;;;;;;;5073657;28;20799;-59
2023/06/08 05:15:37;;;;;;;22.70;13.10;;;;;;;;;;5073095;28;20544;-60
2023/06/08 05:18:04;;;;;;;23.73;12.90;;;;;;;;;;5073729;28;20853;-60
2023/06/08 05:20:31;;;;;;;24.93;12.80;;;;;;;;;;5073188;28;20448;-61
2023/06/08 05:22:58;;;;;;;26.63;13.63;;;;;;;;;;5073321;28;20533;-61
2023/06/08 05:25:26;;;;;;;23.63;14.30;;;;;;;;;;5073489;28;20958;-61
2023/06/08 05:27:55;;;;;;;17.37;11.80;;;;;;;;;;5073049;28;20446;-61
2023/06/08 05:30:22;;;;;;;23.93;13.83;;;;;;;;;;5073144;28;20450;-59
2023/06/08 05:32:49;;;;;;;27.87;13.50;;;;;;;;;;5073166;28;20521;-61
2023/06/08 05:35:17;;;;;;;19.43;13.10;;;;;;;;;;5073314;28;20534;-57
2023/06/08 05:37:44;;;;;;;28.10;13.07;;;;;;;;;;5073327;28;20438;-60
2023/06/08 05:40:11;;;;;;;25.40;14.00;;;;;;;;;;5073010;28;20530;-60
2023/06/08 05:42:38;;;;;;;25.77;12.90;;;;;;;;;;5072970;28;20972;-60
2023/06/08 05:45:08;;;;;;;25.47;14.13;;;;;;;;;;5072916;28;20963;-61
2023/06/08 05:47:35;;;;;;;20.53;13.27;;;;;;;;;;5073406;28;20450;-60
2023/06/08 05:50:02;;;;;;;19.80;13.60;;;;;;;;;;5072642;28;20447;-61
2023/06/08 05:52:29;;;;;;;22.73;14.20;;;;;;;;;;5072828;28;20573;-60
2023/06/08 05:54:57;;;;;;;19.93;13.70;;;;;;;;;;5073192;28;20447;-62
2023/06/08 05:57:24;;;;;;;23.53;14.60;;;;;;;;;;5073204;28;20440;-60
2023/06/08 05:59:51;;;;;;;25.53;15.60;;;;;;;;;;5072652;28;20448;-61
2023/06/08 06:02:19;;;;;;;28.47;16.13;;;;;;;;;;5072764;28;20455;-61
2023/06/08 06:04:47;;;;;;;17.77;12.47;;;;;;;;;;5072844;28;20450;-60
2023/06/08 06:07:14;;;;;;;17.53;13.13;;;;;;;;;;5073108;28;20448;-61
2023/06/08 06:09:41;;;;;;;19.70;14.77;;;;;;;;;;5072960;28;20838;-61
2023/06/08 06:12:09;;;;;;;25.53;13.50;;;;;;;;;;5072467;28;20503;-60
2023/06/08 06:14:40;;;;;;;24.10;14.20;;;;;;;;;;5072799;28;20555;-59
2023/06/08 06:17:08;;;;;;;20.97;13.33;;;;;;;;;;5074708;28;20932;-61
2023/06/08 06:19:37;;;;;;;19.87;13.10;;;;;;;;;;5076243;28;20435;-61
2023/06/08 06:22:05;;;;;;;19.83;14.50;;;;;;;;;;5076624;28;20534;-61
2023/06/08 06:24:32;;;;;;;21.47;14.97;;;;;;;;;;5076668;28;20531;-61
2023/06/08 06:26:59;;;;;;;25.33;15.60;;;;;;;;;;5076891;28;20443;-61
2023/06/08 06:29:27;;;;;;;26.77;14.43;;;;;;;;;;5076414;28;20982;-61
2023/06/08 06:31:54;;;;;;;21.13;15.03;;;;;;;;;;5076111;28;21006;-61
2023/06/08 06:34:21;;;;;;;21.87;14.40;;;;;;;;;;5076543;28;20450;-61
2023/06/08 06:36:50;;;;;;;21.97;15.20;;;;;;;;;;5076593;28;20524;-60
2023/06/08 06:39:17;;;;;;;24.23;14.10;;;;;;;;;;5076546;28;20448;-60
2023/06/08 06:41:44;;;;;;;23.27;15.70;;;;;;;;;;5076078;28;20475;-61
2023/06/08 06:44:11;;;;;;;25.57;15.07;;;;;;;;;;5076490;28;20871;-60
2023/06/08 06:46:39;;;;;;;29.80;14.37;;;;;;;;;;5076129;28;20971;-60
2023/06/08 06:49:06;;;;;;;20.70;15.10;;;;;;;;;;5076380;28;20450;-60
2023/06/08 06:51:34;;;;;;;27.30;14.87;;;;;;;;;;5075888;28;20471;-61
2023/06/08 06:54:02;;;;;;;25.23;15.33;;;;;;;;;;5076364;28;20482;-61
2023/06/08 06:56:29;;;;;;;22.33;15.43;;;;;;;;;;5075803;28;20441;-61
2023/06/08 06:58:57;;;;;;;21.87;15.50;;;;;;;;;;5075951;28;20454;-61
2023/06/08 07:01:24;;;;;;;26.10;16.90;;;;;;;;;;5075794;28;20454;-61
2023/06/08 07:03:52;;;;;;;27.53;14.97;;;;;;;;;;5076047;28;20459;-60
2023/06/08 07:06:23;;;;;;;24.27;16.00;;;;;;;;;;5076034;28;20438;-60
2023/06/08 07:08:50;;;;;;;22.87;14.70;;;;;;;;;;5076076;28;20515;-61
2023/06/08 07:11:19;;;;;;;26.37;16.00;;;;;;;;;;5075653;28;20829;-61
2023/06/08 07:13:46;;;;;;;28.80;16.53;;;;;;;;;;5075821;28;20443;-60
2023/06/08 07:16:13;;;;;;;25.47;14.03;;;;;;;;;;5075520;28;20445;-61
2023/06/08 07:18:41;;;;;;;24.57;16.37;;;;;;;;;;5075610;28;20946;-60
2023/06/08 07:21:08;;;;;;;26.90;16.17;;;;;;;;;;5075319;28;20452;-61
2023/06/08 07:23:35;;;;;;;26.40;16.87;;;;;;;;;;5075855;28;20804;-60
2023/06/08 07:26:02;;;;;;;32.83;17.47;;;;;;;;;;5075661;28;20806;-61
2023/06/08 07:28:31;;;;;;;29.30;17.53;;;;;;;;;;5074645;28;20813;-61
2023/06/08 07:30:58;;;;;;;24.10;15.07;;;;;;;;;;5074331;28;20463;-61
2023/06/08 07:33:26;;;;;;;19.27;15.40;;;;;;;;;;5074878;28;20835;-61
2023/06/08 07:35:53;;;;;;;25.13;17.30;;;;;;;;;;5075152;28;20959;-61
2023/06/08 07:38:20;;;;;;;24.83;17.30;;;;;;;;;;5075287;28;20453;-61
2023/06/08 07:40:47;;;;;;;29.53;17.33;;;;;;;;;;5075190;28;20532;-61
2023/06/08 07:43:14;;;;;;;27.63;17.40;;;;;;;;;;5074908;28;20444;-60
2023/06/08 07:45:43;;;;;;;20.07;15.97;;;;;;;;;;5075448;28;20450;-60
2023/06/08 07:48:10;;;;;;;29.07;16.00;;;;;;;;;;5075191;28;20449;-60
2023/06/08 07:50:37;;;;;;;22.13;15.67;;;;;;;;;;5074932;28;20442;-60
2023/06/08 07:53:05;;;;;;;26.43;16.20;;;;;;;;;;5074170;28;20477;-60
2023/06/08 07:55:32;;;;;;;29.93;16.50;;;;;;;;;;5074298;28;21000;-60
2023/06/08 07:57:59;;;;;;;27.40;16.73;;;;;;;;;;5074564;28;20449;-60
2023/06/08 08:00:27;;;;;;;24.33;15.93;;;;;;;;;;5074688;28;20971;-61
2023/06/08 08:02:55;;;;;;;25.83;18.30;;;;;;;;;;5074951;28;20456;-62
2023/06/08 08:05:23;;;;;;;25.50;16.40;;;;;;;;;;5074682;28;20485;-61
2023/06/08 08:07:50;;;;;;;30.40;16.30;;;;;;;;;;5074971;28;20447;-61
2023/06/08 08:10:17;;;;;;;22.03;15.37;;;;;;;;;;5074515;28;20532;-61
2023/06/08 08:12:44;;;;;;;29.20;17.10;;;;;;;;;;5074815;28;20474;-60
2023/06/08 08:15:12;;;;;;;26.17;17.93;;;;;;;;;;5074281;28;20443;-60
2023/06/08 08:17:40;;;;;;;24.73;16.67;;;;;;;;;;5074144;28;20456;-60
2023/06/08 08:20:10;;;;;;;22.73;16.17;;;;;;;;;;5074472;28;20959;-61
2023/06/08 08:22:37;;;;;;;25.27;17.43;;;;;;;;;;5074341;28;20432;-60
2023/06/08 08:25:07;;;;;;;23.83;17.87;;;;;;;;;;5074887;28;20446;-61
2023/06/08 08:27:34;;;;;;;24.73;17.73;;;;;;;;;;5074275;28;20534;-60
2023/06/08 08:30:01;;;;;;;23.40;16.03;;;;;;;;;;5074074;28;20524;-60
2023/06/08 08:32:29;;;;;;;28.17;18.30;;;;;;;;;;5073685;28;20473;-60
2023/06/08 08:34:56;;;;;;;25.30;16.70;;;;;;;;;;5074291;28;20907;-60
2023/06/08 08:37:25;;;;;;;29.80;17.20;;;;;;;;;;5073923;28;20530;-60
2023/06/08 08:39:52;;;;;;;25.33;17.83;;;;;;;;;;5073773;28;20466;-61
2023/06/08 08:42:22;;;;;;;25.03;16.60;;;;;;;;;;5074054;28;20504;-61
2023/06/08 08:44:50;;;;;;;20.40;16.63;;;;;;;;;;5074430;28;20437;-60
2023/06/08 08:47:18;;;;;;;23.30;16.17;;;;;;;;;;5073486;28;20920;-60
2023/06/08 08:49:46;;;;;;;26.57;17.47;;;;;;;;;;5074149;28;20441;-60
2023/06/08 08:52:13;;;;;;;31.23;17.37;;;;;;;;;;5073617;28;21004;-61
2023/06/08 08:54:42;;;;;;;21.50;16.60;;;;;;;;;;5073914;28;20438;-61
2023/06/08 08:57:09;;;;;;;26.40;19.20;;;;;;;;;;5073873;28;20448;-61
2023/06/08 08:59:37;;;;;;;23.70;17.20;;;;;;;;;;5073814;28;20443;-61
2023/06/08 09:02:05;;;;;;;31.33;18.70;;;;;;;;;;5073259;28;20479;-61
2023/06/08 09:04:33;;;;;;;39.73;23.30;;;;;;;;;;5073751;28;20444;-60
2023/06/08 09:07:00;;;;;;;27.60;18.57;;;;;;;;;;5073743;28;20443;-61
2023/06/08 09:09:28;;;;;;;42.13;29.30;;;;;;;;;;5073033;28;20490;-60
2023/06/08 09:12:00;;;;;;;63.07;38.17;;;;;;;;;;5072881;28;20459;-60
2023/06/08 09:14:27;;;;;;;27.30;20.50;;;;;;;;;;5073918;28;20440;-61
2023/06/08 09:16:55;;;;;;;31.03;18.57;;;;;;;;;;5073456;28;20546;-60
2023/06/08 09:19:23;;;;;;;29.83;20.40;;;;;;;;;;5072860;28;20447;-60
2023/06/08 09:21:50;;;;;;;29.70;18.90;;;;;;;;;;5072838;28;20990;-60
2023/06/08 09:24:19;;;;;;;26.23;19.37;;;;;;;;;;5073411;28;20502;-60
2023/06/08 09:26:48;;;;;;;33.57;21.83;;;;;;;;;;5073405;28;20452;-61
2023/06/08 09:32:12;;;;;;;30.03;19.07;;;;;;;;;;5090043;27;20512;-60
2023/06/08 09:34:53;;;;;;;25.33;18.10;;;;;;;;;;5090383;28;20878;-62
2023/06/08 09:37:26;;;;;;;26.77;17.50;;;;;;;;;;5090665;28;20442;-61
2023/06/08 09:39:53;;;;;;;23.50;17.10;;;;;;;;;;5090930;28;20433;-60
2023/06/08 09:42:20;;;;;;;26.00;17.80;;;;;;;;;;5090058;28;20599;-62
2023/06/08 09:44:47;;;;;;;24.60;16.13;;;;;;;;;;5090466;28;20526;-60
2023/06/08 09:47:26;;;;;;;26.27;15.90;;;;;;;;;;5090228;28;20444;-60
2023/06/08 09:49:53;;;;;;;22.37;16.53;;;;;;;;;;5089879;28;20480;-60
2023/06/08 09:52:21;;;;;;;30.87;20.87;;;;;;;;;;5090597;28;20453;-60
2023/06/08 09:54:49;;;;;;;20.10;15.80;;;;;;;;;;5090516;28;20474;-60
2023/06/08 09:57:17;;;;;;;19.77;15.50;;;;;;;;;;5090674;28;20932;-60
2023/06/08 09:59:47;;;;;;;28.23;16.30;;;;;;;;;;5090006;28;20447;-60
2023/06/08 10:02:23;;;;;;;21.63;16.00;;;;;;;;;;5090248;28;20567;-60
2023/06/08 10:04:54;;;;;;;20.60;14.73;;;;;;;;;;5090560;28;20443;-60
2023/06/08 10:07:24;;;;;;;19.43;15.10;;;;;;;;;;5090065;28;20908;-60
2023/06/08 10:09:54;;;;;;;19.53;14.33;;;;;;;;;;5090196;28;20432;-60
2023/06/08 10:12:21;;;;;;;17.60;14.43;;;;;;;;;;5089892;28;20431;-60
2023/06/08 10:14:49;;;;;;;22.83;15.77;;;;;;;;;;5089636;28;20471;-60
2023/06/08 10:17:17;;;;;;;18.10;14.30;;;;;;;;;;5089771;28;20487;-60
2023/06/08 10:19:45;;;;;;;19.73;15.67;;;;;;;;;;5089918;28;20478;-60
2023/06/08 10:22:13;;;;;;;22.60;15.10;;;;;;;;;;5090006;28;20483;-60
2023/06/08 10:24:40;;;;;;;17.13;13.80;;;;;;;;;;5089581;28;21000;-60
2023/06/08 10:27:11;;;;;;;19.60;14.87;;;;;;;;;;5089604;28;20449;-60
2023/06/08 10:29:38;;;;;;;20.67;15.00;;;;;;;;;;5089759;28;20467;-60
2023/06/08 10:32:07;;;;;;;19.40;14.60;;;;;;;;;;5089276;28;20486;-60
2023/06/08 10:34:39;;;;;;;18.23;13.90;;;;;;;;;;5089340;28;20452;-60
2023/06/08 10:37:07;;;;;;;18.50;12.93;;;;;;;;;;5089471;28;20432;-60
2023/06/08 10:39:45;;;;;;;19.97;14.63;;;;;;;;;;5089223;28;20439;-60
2023/06/08 10:42:18;;;;;;;17.90;15.10;;;;;;;;;;5083337;28;20454;-60
2023/06/08 10:44:46;;;;;;;17.53;14.63;;;;;;;;;;5075454;28;20428;-61
2023/06/08 10:47:13;;;;;;;20.20;15.50;;;;;;;;;;5075194;28;20486;-61
2023/06/08 10:49:45;;;;;;;16.63;14.20;;;;;;;;;;5075077;28;20448;-60
2023/06/08 10:52:19;;;;;;;18.20;13.53;;;;;;;;;;5075630;28;20839;-60
2023/06/08 10:54:53;;;;;;;15.90;12.60;;;;;;;;;;5075362;28;20438;-60
2023/06/08 10:57:36;;;;;;;18.37;13.70;;;;;;;;;;5075793;28;20478;-60
2023/06/08 11:00:23;;;;;;;18.70;13.47;;;;;;;;;;5075782;28;20470;-60
2023/06/08 11:02:52;;;;;;;18.60;12.53;;;;;;;;;;5075547;28;20436;-60
2023/06/08 11:05:19;;;;;;;15.17;12.90;;;;;;;;;;5075023;28;20944;-60
2023/06/08 11:07:47;;;;;;;19.43;14.33;;;;;;;;;;5075193;28;20958;-60
2023/06/08 11:10:14;;;;;;;19.43;13.97;;;;;;;;;;5075035;28;20446;-60
2023/06/08 11:12:41;;;;;;;24.13;15.27;;;;;;;;;;5075522;28;20440;-60
2023/06/08 11:15:09;;;;;;;20.43;13.87;;;;;;;;;;5085739;28;20440;-60
2023/06/08 11:17:44;;;;;;;17.63;14.50;;;;;;;;;;5095532;28;20441;-60
2023/06/08 11:20:14;;;;;;;19.27;12.00;;;;;;;;;;5095536;28;20439;-60
2023/06/08 11:22:41;;;;;;;14.07;11.20;;;;;;;;;;5095147;28;20475;-60
2023/06/08 11:25:09;;;;;;;15.13;12.50;;;;;;;;;;5095283;28;20434;-60
2023/06/08 11:27:43;;;;;;;23.13;15.03;;;;;;;;;;5095172;28;20858;-60
2023/06/08 11:30:10;;;;;;;15.47;12.47;;;;;;;;;;5095124;28;20481;-60
2023/06/08 11:32:39;;;;;;;21.33;12.67;;;;;;;;;;5095101;28;20477;-60
2023/06/08 11:35:06;;;;;;;20.50;16.33;;;;;;;;;;5095000;28;20460;-60
2023/06/08 11:37:36;;;;;;;13.57;11.53;;;;;;;;;;5095019;28;20773;-60
2023/06/08 11:40:10;;;;;;;11.80;10.60;;;;;;;;;;5094717;28;20987;-61
2023/06/08 11:42:37;;;;;;;15.77;11.57;;;;;;;;;;5094789;28;20444;-60
2023/06/08 11:45:05;;;;;;;14.30;10.70;;;;;;;;;;5094617;28;20442;-61
2023/06/08 11:47:32;;;;;;;13.00;11.60;;;;;;;;;;5094889;28;20473;-60
2023/06/08 11:50:01;;;;;;;14.00;11.40;;;;;;;;;;5094849;28;20449;-60
2023/06/08 11:52:29;;;;;;;11.97;10.80;;;;;;;;;;5094442;28;20478;-60
2023/06/08 11:54:59;;;;;;;14.00;11.40;;;;;;;;;;5093757;28;20781;-61
2023/06/08 11:57:40;;;;;;;10.80;9.80;;;;;;;;;;5094334;28;20477;-61
2023/06/08 12:00:09;;;;;;;10.97;8.80;;;;;;;;;;5094340;28;20453;-61
2023/06/08 12:02:36;;;;;;;9.23;8.33;;;;;;;;;;5094621;28;20799;-61
2023/06/08 12:05:03;;;;;;;11.17;8.67;;;;;;;;;;5094379;28;20793;-61
2023/06/08 12:07:32;;;;;;;9.53;8.40;;;;;;;;;;5093998;28;20436;-61
2023/06/08 12:10:01;;;;;;;11.20;9.20;;;;;;;;;;5094252;28;20478;-60
2023/06/08 12:12:29;;;;;;;8.30;7.50;;;;;;;;;;5094358;28;20471;-60
2023/06/08 12:14:56;;;;;;;11.00;8.90;;;;;;;;;;5094190;28;20428;-61
2023/06/08 12:17:26;;;;;;;10.90;8.43;;;;;;;;;;5093844;28;20446;-61
2023/06/08 12:19:53;;;;;;;9.07;7.50;;;;;;;;;;5094248;28;20530;-61
2023/06/08 12:22:20;;;;;;;8.73;8.00;;;;;;;;;;5094426;28;20444;-60
2023/06/08 12:24:48;;;;;;;8.13;7.33;;;;;;;;;;5094026;28;20439;-61
2023/06/08 12:27:16;;;;;;;9.73;8.20;;;;;;;;;;5094376;28;20465;-62
2023/06/08 12:29:43;;;;;;;8.43;7.63;;;;;;;;;;5093977;28;20522;-61
2023/06/08 12:32:11;;;;;;;8.87;8.00;;;;;;;;;;5094169;28;20476;-60
2023/06/08 12:34:38;;;;;;;8.57;7.70;;;;;;;;;;5094217;28;20466;-61
2023/06/08 12:37:05;;;;;;;12.43;6.87;;;;;;;;;;5094082;28;20448;-61
2023/06/08 12:39:33;;;;;;;9.10;7.97;;;;;;;;;;5094318;28;20445;-61
2023/06/08 12:42:00;;;;;;;8.30;7.60;;;;;;;;;;5093970;28;20454;-61
2023/06/08 12:44:28;;;;;;;9.40;7.33;;;;;;;;;;5093731;28;20437;-61
2023/06/08 12:46:55;;;;;;;9.37;8.53;;;;;;;;;;5093478;28;20446;-61
2023/06/08 12:49:23;;;;;;;8.30;7.60;;;;;;;;;;5093576;28;20449;-61
2023/06/08 12:51:51;;;;;;;9.33;8.20;;;;;;;;;;5093733;28;20532;-61
2023/06/08 12:54:18;;;;;;;12.50;9.50;;;;;;;;;;5093859;28;20938;-61
2023/06/08 12:56:45;;;;;;;14.27;9.73;;;;;;;;;;5093714;28;20437;-61
2023/06/08 12:59:12;;;;;;;12.60;10.43;;;;;;;;;;5093684;28;20478;-62
2023/06/08 13:01:41;;;;;;;18.27;13.97;;;;;;;;;;5094049;28;20450;-61
2023/06/08 13:04:08;;;;;;;14.30;11.00;;;;;;;;;;5093485;28;20442;-61
2023/06/08 13:06:36;;;;;;;13.93;8.70;;;;;;;;;;5093211;28;20450;-61
2023/06/08 13:09:03;;;;;;;13.50;12.07;;;;;;;;;;5093303;28;20479;-61
2023/06/08 13:11:31;;;;;;;11.30;10.10;;;;;;;;;;5093141;28;20486;-61
2023/06/08 13:13:58;;;;;;;11.20;10.07;;;;;;;;;;5092951;28;20460;-61
2023/06/08 13:16:30;;;;;;;14.70;10.70;;;;;;;;;;5093132;28;20447;-60
2023/06/08 13:18:58;;;;;;;11.83;9.43;;;;;;;;;;5093473;28;20775;-61
2023/06/08 13:21:31;;;;;;;12.10;10.27;;;;;;;;;;5092866;28;20446;-61
2023/06/08 13:23:58;;;;;;;11.27;8.53;;;;;;;;;;5093139;28;20988;-61
2023/06/08 13:26:26;;;;;;;12.07;9.87;;;;;;;;;;5093265;28;20806;-61
2023/06/08 13:28:53;;;;;;;17.10;11.87;;;;;;;;;;5093362;28;20457;-61
2023/06/08 13:31:20;;;;;;;9.77;8.77;;;;;;;;;;5092557;28;20582;-61
2023/06/08 13:33:47;;;;;;;17.77;13.10;;;;;;;;;;5092915;28;20482;-60
2023/06/08 13:36:16;;;;;;;8.57;7.17;;;;;;;;;;5093232;28;20419;-61
2023/06/08 13:38:43;;;;;;;7.60;6.90;;;;;;;;;;5092382;28;20430;-61
2023/06/08 13:41:11;;;;;;;11.73;9.23;;;;;;;;;;5092636;28;20421;-61
2023/06/08 13:43:39;;;;;;;11.37;9.67;;;;;;;;;;5092633;28;20417;-61
2023/06/08 13:46:06;;;;;;;8.93;7.53;;;;;;;;;;5092221;28;20910;-62
2023/06/08 13:48:33;;;;;;;9.47;8.57;;;;;;;;;;5092651;28;20447;-61
2023/06/08 13:51:00;;;;;;;9.33;8.37;;;;;;;;;;5092938;28;20435;-61
2023/06/08 13:53:29;;;;;;;9.80;8.90;;;;;;;;;;5092542;28;20566;-61
2023/06/08 13:55:57;;;;;;;9.67;7.70;;;;;;;;;;5092871;28;20866;-62
2023/06/08 13:58:24;;;;;;;8.50;7.63;;;;;;;;;;5093132;28;20819;-62
2023/06/08 14:00:51;;;;;;;8.97;7.30;;;;;;;;;;5092454;28;20431;-61
2023/06/08 14:03:18;;;;;;;9.40;7.40;;;;;;;;;;5092548;28;20433;-61
2023/06/08 14:05:46;;;;;;;9.40;8.43;;;;;;;;;;5092035;28;20443;-62
2023/06/08 14:08:13;;;;;;;10.43;9.47;;;;;;;;;;5092473;28;20421;-62
2023/06/08 14:10:41;;;;;;;9.10;8.17;;;;;;;;;;5092320;28;20437;-62
2023/06/08 14:13:09;;;;;;;11.80;10.40;;;;;;;;;;5092492;28;20468;-62
2023/06/08 14:15:36;;;;;;;11.13;9.97;;;;;;;;;;5092818;28;20430;-61
2023/06/08 14:18:03;;;;;;;9.97;8.97;;;;;;;;;;5094996;28;20444;-62
2023/06/08 14:20:33;;;;;;;9.27;8.37;;;;;;;;;;5096636;28;20433;-62
2023/06/08 14:23:01;;;;;;;9.53;8.67;;;;;;;;;;5095993;28;20426;-61
2023/06/08 14:25:28;;;;;;;11.77;8.90;;;;;;;;;;5095874;28;20799;-62
2023/06/08 14:27:58;;;;;;;10.17;9.17;;;;;;;;;;5096324;28;20482;-62
2023/06/08 14:30:25;;;;;;;8.50;7.70;;;;;;;;;;5095959;28;20443;-62